x

Galveston,tx - 22 Nm East Of Galveston, Tx (42035) Wave Buoy

9:50pm - Thu 17th Apr 2014 All times are CDT. -5 hours from GMT.

  • Sig Wave height 3.9ft
  • Swell Direction
  • Peak Period 6s
  • Average Period 4s
  • Wind
    13mph, 16mph gusts
  • Sea Temp 66°f
  • Air Temp 64°f
  • Sea Pressure 1020mb
  • Galveston,tx -  22 Nm East Of Galveston, Tx
  • Galveston,tx -  22 Nm East Of Galveston, Tx

More Historic Weather Station data

Upgrade to MSW Pro to gain access to the past 30 days of data for over 8000 Wavebouys and Weather Stations around the globe.

Join Pro

Comparision Forecast

View Surf forecast
   
Thu 04/17 9:50pm 4ft 6s 4s 13 16 mph 1020mb 66f 64f
8:50pm 4ft 6s 4s 16 20 mph 1019.3mb 66f 64f
7:50pm 4ft 6s 4s 16 18 mph 1019mb 66f 63f
6:50pm 4.5ft 6s 4s 18 22 mph 1018.8mb 66f 64f
5:50pm 4.5ft 6s 4s 22 27 mph 1018mb 66f 64f
4:50pm 4.5ft 6s 4s 20 22 mph 1018mb 66f 63f
3:50pm 4.5ft 6s 4s 18 20 mph 1018mb 66f 64f
2:50pm 4.5ft 6s 4s 18 22 mph 1018.2mb 66f 64f
1:50pm 5ft 5s 4s 18 22 mph 1018.4mb 66f 64f
12:50pm 4.5ft 5s 4s 29 36 mph 1016.9mb 66f 64f
11:50am 3.5ft 5s 4s 25 31 mph 1018.1mb 66f 64f
10:50am 4ft 5s 4s 22 27 mph 1018.2mb 66f 64f
9:50am 3.5ft 5s 4s 25 29 mph 1018mb 66f 64f
8:50am 3.5ft 6s 4s 20 25 mph 1018mb 66f 65f
7:50am 3.5ft 5s 4s 16 20 mph 1017.7mb 66f 65f
6:50am 3.5ft 6s 4s 16 18 mph 1017.4mb 66f 65f
5:50am 4ft 5s 4s 16 20 mph 1017.2mb 66f 65f
4:50am 3.5ft 5s 4s 18 20 mph 1017mb 66f 65f
3:50am 4ft 5s 4s 18 20 mph 1017mb 66f 64f
2:50am 3.5ft 4s 4s 18 22 mph 1016.8mb 66f 64f
1:50am 3.5ft 4s 4s 18 22 mph 1016.9mb 66f 64f
12:50am 3.5ft 4s 4s 20 25 mph 1017mb 66f 64f
Wed 04/16 11:50pm 3ft 5s 4s 18 22 mph 1017.3mb 66f 64f
10:50pm 2.5ft 4s 4s 20 25 mph 1017.2mb 66f 63f
9:50pm 2.5ft 4s 4s 16 20 mph 1017.8mb 66f 63f
8:50pm 2.5ft 4s 4s 13 18 mph 1017.9mb 66f 62f
7:50pm 2.5ft 3s 3s 16 20 mph 1017.3mb 66f 62f
6:50pm 2.5ft 4s 4s 16 20 mph 1017.3mb 66f 62f
5:50pm 2.5ft 5s 4s 13 18 mph 1017.1mb 67f 62f
4:50pm 2ft 5s 3s 16 18 mph 1017.5mb 67f 62f
3:50pm 2ft 4s 3s 13 18 mph 1018.2mb 67f 61f
2:50pm 2ft 5s 4s 13 18 mph 1019.2mb 66f 60f
1:50pm 2.5ft 5s 4s 13 18 mph 1020mb 66f 60f
12:50pm 2.5ft 5s 4s 11 18 mph 1021.3mb 66f 60f
11:50am 2.5ft 5s 4s 11 16 mph 1021.8mb 66f 59f
10:50am 3ft 5s 4s 11 13 mph 1022.4mb 66f 58f
9:50am 3ft 5s 4s 13 18 mph 1021.9mb 66f 57f
8:50am 2.5ft 4s 4s 18 20 mph 1021.4mb 66f 57f
7:50am 2.5ft 4s 3s 16 22 mph 1021.4mb 66f 58f
6:50am 2ft 4s 3s 16 20 mph 1021.1mb 66f 58f
5:50am 2ft 4s 3s 16 20 mph 1020.4mb 66f 58f
4:50am 2ft 4s 3s 18 20 mph 1020.4mb 66f 58f
3:50am 2ft 4s 3s 13 18 mph 1021.1mb 66f 58f
2:50am 2ft 4s 3s 11 18 mph 1021mb 66f 58f
1:50am 2ft 4s 3s 16 20 mph 1021.1mb 66f 59f
12:50am 2ft 4s 3s 13 18 mph 1021.6mb 66f 59f
Tue 04/15 11:50pm 2ft 4s 3s 16 18 mph 1021.4mb 66f 59f
10:50pm 2ft 4s 3s 16 20 mph 1021.6mb 66f 60f
9:50pm 2ft 3s 3s 16 20 mph 1021.4mb 66f 60f
8:50pm 2.5ft 4s 3s 16 18 mph 1021.3mb 66f 60f
7:50pm 2.5ft 3s 3s 16 20 mph 1020.7mb 66f 60f
6:50pm 2.5ft 3s 3s 18 22 mph 1020.6mb 67f 60f
5:50pm 2.5ft 3s 3s 16 22 mph 1021mb 67f 60f
4:50pm 2.5ft 5s 4s 13 16 mph 1021.6mb 67f 58f
3:50pm 3.5ft 5s 4s 13 20 mph 1022.7mb 67f 57f
2:50pm 3.5ft 5s 4s 18 22 mph 1023.2mb 66f 56f
1:50pm 4.5ft 5s 4s 18 22 mph 1023.8mb 66f 55f
12:50pm 4.5ft 5s 4s 25 29 mph 1023.6mb 66f 54f
11:50am 5ft 5s 4s 25 29 mph 1024.1mb 66f 52f
10:50am 4.5ft 5s 4s 25 31 mph 1024.3mb 66f 50f
9:50am 5.5ft 5s 4s 25 34 mph 1024.2mb 66f 48f
8:50am 6ft 5s 4s 29 36 mph 1023.7mb 66f 48f
7:50am 5ft 5s 4s 29 34 mph 1023.4mb 66f 48f
6:50am 6ft 5s 4s 29 36 mph 1022.3mb 66f 48f
5:50am 6.5ft 5s 5s 31 38 mph 1021mb 66f 49f
4:50am 6.5ft 5s 5s 34 40 mph 1020.4mb 66f 49f
3:50am 7.5ft 6s 5s 31 38 mph 1020.5mb 66f 50f
2:50am 7ft 6s 5s 36 47 mph 1020.1mb 67f 50f
1:50am 6.5ft 6s 5s 34 45 mph 1019.8mb 67f 50f
12:50am 7.5ft 6s 5s 36 47 mph 1019.1mb 67f 51f
Mon 04/14 11:50pm 7.5ft 6s 5s 36 45 mph 1018.3mb 67f 52f
10:50pm 7ft 5s 5s 36 43 mph 1017.3mb 67f 53f
9:50pm 7.5ft 5s 5s 36 45 mph 1015.6mb 67f 54f
8:50pm 7ft 6s 5s 36 43 mph 1014.4mb 67f 54f
7:50pm 8ft 6s 5s 36 43 mph 1012.8mb 67f 53f
6:50pm 7ft 5s 5s 40 47 mph 1011mb 68f 53f
5:50pm 5ft 5s 4s 34 43 mph 1010.6mb 68f 54f
4:50pm 5ft 5s 4s 31 38 mph 1009.6mb 68f 57f
3:50pm 6ft 6s 4s 31 38 mph 1009.1mb 68f 57f
2:50pm 4ft 7s 4s 36 45 mph 1009.6mb 69f 59f
1:50pm 3.5ft 7s 5s 4 7 mph 1008.8mb 69f 70f
12:50pm 4ft 7s 5s 4
mph
1009mb 69f 69f
11:50am 3.5ft 7s 5s 7
mph
1009.3mb 69f 70f
10:50am 4ft 7s 5s 9 11 mph 1009.7mb 69f 69f
9:50am 4ft 6s 5s 4 7 mph 1008.9mb 69f 70f
8:50am 4.5ft 7s 5s 7 9 mph 1008.4mb 69f 70f
7:50am 4ft 7s 5s 11 13 mph 1007.5mb 69f 70f
6:50am 4.5ft 6s 5s 11 13 mph 1007.1mb 69f 70f
5:50am 4ft 6s 5s 13 16 mph 1006.6mb 69f 70f
4:50am 4.5ft 6s 5s 16 20 mph 1006.2mb 69f 70f